createdAt,value
2023-02-02T00:00:14.968Z,0.52
2023-02-02T00:01:14.930Z,0.51
2023-02-02T00:02:14.978Z,0.51
2023-02-02T00:03:14.863Z,0.52
2023-02-02T00:04:14.864Z,0.52
2023-02-02T00:05:14.804Z,0.51
2023-02-02T00:06:14.742Z,0.51
2023-02-02T00:07:14.726Z,0.50
2023-02-02T00:08:14.675Z,0.51
2023-02-02T00:09:14.637Z,0.51
2023-02-02T00:10:15.380Z,0.50
2023-02-02T00:11:14.548Z,0.51
2023-02-02T00:12:14.510Z,0.51
2023-02-02T00:13:14.515Z,0.50
2023-02-02T00:14:14.438Z,0.51
2023-02-02T00:15:15.390Z,0.51
2023-02-02T00:16:14.387Z,0.51
2023-02-02T00:17:14.337Z,0.50
2023-02-02T00:18:14.322Z,0.51
2023-02-02T00:19:14.267Z,0.51
2023-02-02T00:20:14.232Z,0.51
2023-02-02T00:21:14.215Z,0.52
2023-02-02T00:22:14.149Z,0.51
2023-02-02T00:23:14.106Z,0.52
2023-02-02T00:24:14.109Z,0.52
2023-02-02T00:25:14.043Z,0.50
2023-02-02T00:26:13.988Z,0.50
2023-02-02T00:27:13.976Z,0.51
2023-02-02T00:28:13.940Z,0.52
2023-02-02T00:29:13.913Z,0.51
2023-02-02T00:30:13.888Z,0.52
2023-02-02T00:31:13.867Z,0.51
2023-02-02T00:32:13.783Z,0.51
2023-02-02T00:33:13.756Z,0.51
2023-02-02T00:34:13.724Z,0.51
2023-02-02T00:35:13.666Z,0.51
2023-02-02T00:36:13.639Z,0.52
2023-02-02T00:37:13.584Z,0.52
2023-02-02T00:38:13.551Z,0.52
2023-02-02T00:39:13.518Z,0.51
2023-02-02T00:40:13.464Z,0.52
2023-02-02T00:41:13.427Z,0.52
2023-02-02T00:42:13.417Z,0.51
2023-02-02T00:43:13.354Z,0.51
2023-02-02T00:44:13.316Z,0.51
2023-02-02T00:45:13.291Z,0.51
2023-02-02T00:46:13.233Z,0.51
2023-02-02T00:47:13.206Z,0.52
2023-02-02T00:48:13.906Z,0.51
2023-02-02T00:49:13.415Z,0.51
2023-02-02T00:50:13.120Z,0.51
2023-02-02T00:51:13.899Z,0.51
2023-02-02T00:52:13.026Z,0.51
2023-02-02T00:53:12.993Z,0.51
2023-02-02T00:54:12.937Z,0.51
2023-02-02T00:55:12.897Z,0.51
2023-02-02T00:56:12.871Z,0.50
2023-02-02T00:57:12.845Z,0.51
2023-02-02T00:58:12.765Z,0.50
2023-02-02T00:59:12.747Z,0.51
2023-02-02T01:00:12.672Z,0.52
2023-02-02T01:01:12.748Z,0.51
2023-02-02T01:02:12.610Z,0.51
2023-02-02T01:03:12.561Z,0.51
2023-02-02T01:04:13.411Z,0.51
2023-02-02T01:05:12.457Z,0.51
2023-02-02T01:06:12.409Z,0.51
2023-02-02T01:07:12.393Z,0.51
2023-02-02T01:08:12.332Z,0.52
2023-02-02T01:09:12.307Z,0.51
2023-02-02T01:10:12.256Z,0.51
2023-02-02T01:11:12.193Z,0.51
2023-02-02T01:12:12.159Z,0.50
2023-02-02T01:13:12.156Z,0.51
2023-02-02T01:14:12.076Z,0.51
2023-02-02T01:15:12.043Z,0.52
2023-02-02T01:16:12.059Z,0.51
2023-02-02T01:17:11.994Z,0.51
2023-02-02T01:18:11.960Z,0.50
2023-02-02T01:19:11.935Z,0.52
2023-02-02T01:20:11.870Z,0.51
2023-02-02T01:21:11.855Z,0.50
2023-02-02T01:22:11.831Z,0.50
2023-02-02T01:23:11.769Z,0.51
2023-02-02T01:24:11.737Z,0.51
2023-02-02T01:25:11.666Z,0.51
2023-02-02T01:26:11.646Z,0.51
2023-02-02T01:27:11.612Z,0.52
2023-02-02T01:28:11.616Z,0.51
2023-02-02T01:29:11.528Z,0.51
2023-02-02T01:30:11.525Z,0.51
2023-02-02T01:31:11.524Z,0.51
2023-02-02T01:32:11.429Z,0.51
2023-02-02T01:33:11.415Z,0.51
2023-02-02T01:34:11.351Z,0.51
2023-02-02T01:35:11.332Z,0.51
2023-02-02T01:36:11.288Z,0.50
2023-02-02T01:37:11.251Z,0.51
2023-02-02T01:38:11.199Z,0.51
2023-02-02T01:39:11.169Z,0.50
2023-02-02T01:40:11.148Z,0.51
2023-02-02T01:41:11.079Z,0.51
2023-02-02T01:42:11.045Z,0.51
2023-02-02T01:43:11.000Z,0.51
2023-02-02T01:44:10.956Z,0.52
2023-02-02T01:45:10.947Z,0.51
2023-02-02T01:46:10.944Z,0.51
2023-02-02T01:47:10.873Z,0.50
2023-02-02T01:48:10.873Z,0.52
2023-02-02T01:49:10.742Z,0.51
2023-02-02T01:50:10.703Z,0.52
2023-02-02T01:51:10.672Z,0.51
2023-02-02T01:52:10.650Z,0.52
2023-02-02T01:53:10.582Z,0.52
2023-02-02T01:54:10.554Z,0.52
2023-02-02T01:55:10.512Z,0.51
2023-02-02T01:56:10.464Z,0.52
2023-02-02T01:57:10.434Z,0.50
2023-02-02T01:58:10.381Z,0.52
2023-02-02T01:59:10.335Z,0.51
2023-02-02T02:00:10.320Z,0.51
2023-02-02T02:01:10.292Z,0.51
2023-02-02T02:02:10.254Z,0.52
2023-02-02T02:03:10.194Z,0.51
2023-02-02T02:04:10.153Z,0.52
2023-02-02T02:05:10.419Z,0.51
2023-02-02T02:06:10.059Z,0.51
2023-02-02T02:07:10.017Z,0.51
2023-02-02T02:08:10.029Z,0.51
2023-02-02T02:09:09.927Z,0.51
2023-02-02T02:10:09.894Z,0.51
2023-02-02T02:11:09.834Z,0.51
2023-02-02T02:12:09.799Z,0.51
2023-02-02T02:13:09.855Z,0.52
2023-02-02T02:14:09.713Z,0.51
2023-02-02T02:15:09.662Z,0.51
2023-02-02T02:16:09.663Z,0.51
2023-02-02T02:17:10.419Z,0.52
2023-02-02T02:18:09.649Z,0.52
2023-02-02T02:19:09.518Z,0.51
2023-02-02T02:20:09.694Z,0.51
2023-02-02T02:21:09.659Z,0.51
2023-02-02T02:22:09.411Z,0.51
2023-02-02T02:23:09.336Z,0.52
2023-02-02T02:24:09.307Z,0.52
2023-02-02T02:25:09.293Z,0.51
2023-02-02T02:26:09.216Z,0.51
2023-02-02T02:27:09.193Z,0.52
2023-02-02T02:28:09.145Z,0.50
2023-02-02T02:29:09.094Z,0.51
2023-02-02T02:30:09.076Z,0.51
2023-02-02T02:31:09.175Z,0.51
2023-02-02T02:32:09.003Z,0.51
2023-02-02T02:33:08.993Z,0.51
2023-02-02T02:34:08.973Z,0.51
2023-02-02T02:35:08.909Z,0.51
2023-02-02T02:36:08.867Z,0.51
2023-02-02T02:37:08.831Z,0.51
2023-02-02T02:38:08.814Z,0.51
2023-02-02T02:39:09.570Z,0.52
2023-02-02T02:40:08.733Z,0.51
2023-02-02T02:41:08.699Z,0.51
2023-02-02T02:42:08.636Z,0.51
2023-02-02T02:43:08.609Z,0.52
2023-02-02T02:44:08.591Z,0.51
2023-02-02T02:45:08.553Z,0.50
2023-02-02T02:46:08.542Z,0.52
2023-02-02T02:47:08.436Z,0.51
2023-02-02T02:48:08.439Z,0.50
2023-02-02T02:49:08.967Z,0.52
2023-02-02T02:50:08.342Z,0.51
2023-02-02T02:51:08.411Z,0.50
2023-02-02T02:52:08.259Z,0.50
2023-02-02T02:53:08.257Z,0.51
2023-02-02T02:54:08.208Z,0.50
2023-02-02T02:55:08.141Z,0.50
2023-02-02T02:56:08.111Z,0.44
2023-02-02T02:57:08.085Z,0.42
2023-02-02T02:58:08.047Z,0.39
2023-02-02T02:59:08.032Z,0.37
2023-02-02T03:00:08.045Z,0.38
2023-02-02T03:01:08.057Z,0.47
2023-02-02T03:02:07.967Z,0.50
2023-02-02T03:03:07.921Z,0.52
2023-02-02T03:04:07.892Z,0.48
2023-02-02T03:05:07.843Z,0.51
2023-02-02T03:06:07.828Z,0.50
2023-02-02T03:07:07.796Z,0.54
2023-02-02T03:08:07.741Z,0.51
2023-02-02T03:09:07.703Z,0.51
2023-02-02T03:10:07.671Z,0.52
2023-02-02T03:11:07.632Z,0.53
2023-02-02T03:12:07.602Z,0.55
2023-02-02T03:13:07.574Z,0.51
2023-02-02T03:14:07.574Z,0.52
2023-02-02T03:15:07.514Z,0.51
2023-02-02T03:16:07.518Z,0.54
2023-02-02T03:17:07.459Z,0.54
2023-02-02T03:18:07.431Z,0.54
2023-02-02T03:19:07.423Z,0.53
2023-02-02T03:20:07.407Z,0.54
2023-02-02T03:21:07.346Z,0.50
2023-02-02T03:22:07.324Z,0.51
2023-02-02T03:23:07.343Z,0.52
2023-02-02T03:24:07.298Z,0.51
2023-02-02T03:25:07.253Z,0.50
2023-02-02T03:26:07.183Z,0.51
2023-02-02T03:27:07.154Z,0.56
2023-02-02T03:28:07.123Z,0.51
2023-02-02T03:29:07.114Z,0.52
2023-02-02T03:30:07.088Z,0.52
2023-02-02T03:31:07.146Z,0.55
2023-02-02T03:32:07.018Z,0.50
2023-02-02T03:33:06.983Z,0.50
2023-02-02T03:34:06.957Z,0.53
2023-02-02T03:35:06.924Z,0.52
2023-02-02T03:36:06.924Z,0.53
2023-02-02T03:37:06.868Z,0.53
2023-02-02T03:38:06.811Z,0.55
2023-02-02T03:39:06.821Z,0.61
2023-02-02T03:40:06.772Z,0.57
2023-02-02T03:41:06.717Z,0.56
2023-02-02T03:42:06.738Z,0.52
2023-02-02T03:43:06.703Z,0.52
2023-02-02T03:44:06.650Z,0.50
2023-02-02T03:45:06.660Z,0.55
2023-02-02T03:46:07.490Z,0.58
2023-02-02T03:47:06.616Z,0.52
2023-02-02T03:48:06.562Z,0.51
2023-02-02T03:49:06.527Z,0.52
2023-02-02T03:50:06.587Z,0.57
2023-02-02T03:51:06.501Z,0.53
2023-02-02T03:52:06.494Z,0.51
2023-02-02T03:53:06.427Z,0.51
2023-02-02T03:54:06.439Z,0.51
2023-02-02T03:55:06.367Z,0.52
2023-02-02T03:56:06.367Z,0.54
2023-02-02T03:57:06.330Z,0.55
2023-02-02T03:58:06.319Z,0.55
2023-02-02T03:59:06.280Z,0.54
2023-02-02T04:00:06.305Z,0.53
2023-02-02T04:01:06.242Z,0.54
2023-02-02T04:02:06.211Z,0.54
2023-02-02T04:03:06.209Z,0.52
2023-02-02T04:04:06.165Z,0.54
2023-02-02T04:05:06.131Z,0.53
2023-02-02T04:06:06.075Z,0.55
2023-02-02T04:07:06.049Z,0.49
2023-02-02T04:08:06.012Z,0.53
2023-02-02T04:09:05.983Z,0.50
2023-02-02T04:10:05.994Z,0.56
2023-02-02T04:11:05.942Z,0.55
2023-02-02T04:12:05.958Z,0.55
2023-02-02T04:13:05.912Z,0.56
2023-02-02T04:14:05.861Z,0.58
2023-02-02T04:15:05.849Z,0.62
2023-02-02T04:16:05.852Z,0.80
2023-02-02T04:17:05.789Z,0.79
2023-02-02T04:18:05.768Z,0.86
2023-02-02T04:19:05.739Z,0.86
2023-02-02T04:20:05.748Z,0.89
2023-02-02T04:21:05.687Z,0.81
2023-02-02T04:22:05.688Z,0.81
2023-02-02T04:23:05.667Z,0.75
2023-02-02T04:24:05.638Z,0.61
2023-02-02T04:25:05.640Z,0.61
2023-02-02T04:26:05.590Z,0.63
2023-02-02T04:27:05.588Z,0.69
2023-02-02T04:28:05.597Z,0.82
2023-02-02T04:29:05.538Z,0.91
2023-02-02T04:30:05.515Z,0.94
2023-02-02T04:31:05.600Z,0.92
2023-02-02T04:32:05.486Z,0.90
2023-02-02T04:33:05.462Z,0.81
2023-02-02T04:34:05.456Z,0.82
2023-02-02T04:35:05.407Z,0.69
2023-02-02T04:36:05.449Z,0.72
2023-02-02T04:37:05.407Z,0.73
2023-02-02T04:38:05.426Z,0.85
2023-02-02T04:39:05.351Z,1.01
2023-02-02T04:40:05.333Z,0.88
2023-02-02T04:41:05.297Z,0.96
2023-02-02T04:42:05.300Z,0.95
2023-02-02T04:43:05.283Z,1.04
2023-02-02T04:44:05.234Z,0.89
2023-02-02T04:45:05.239Z,0.77
2023-02-02T04:46:05.236Z,0.72
2023-02-02T04:47:05.166Z,0.70
2023-02-02T04:48:05.169Z,0.71
2023-02-02T04:49:05.135Z,0.73
2023-02-02T04:50:05.081Z,0.79
2023-02-02T04:51:05.067Z,0.69
2023-02-02T04:52:05.034Z,0.71
2023-02-02T04:53:05.073Z,0.79
2023-02-02T04:54:05.042Z,0.91
2023-02-02T04:55:04.974Z,1.03
2023-02-02T04:56:04.947Z,0.96
2023-02-02T04:57:04.913Z,1.01
2023-02-02T04:58:04.922Z,1.08
2023-02-02T04:59:04.875Z,1.00
2023-02-02T05:00:04.844Z,0.94
2023-02-02T05:01:04.866Z,0.78
2023-02-02T05:02:04.787Z,0.86
2023-02-02T05:03:04.793Z,0.89
2023-02-02T05:04:04.758Z,1.01
2023-02-02T05:05:04.750Z,1.07
2023-02-02T05:06:04.717Z,1.14
2023-02-02T05:07:04.699Z,1.07
2023-02-02T05:08:04.679Z,1.05
2023-02-02T05:09:04.625Z,1.06
2023-02-02T05:10:04.630Z,1.08
2023-02-02T05:11:04.590Z,1.05
2023-02-02T05:12:04.559Z,1.01
2023-02-02T05:13:04.540Z,1.07
2023-02-02T05:14:04.488Z,1.11
2023-02-02T05:15:04.475Z,1.01
2023-02-02T05:16:04.438Z,1.04
2023-02-02T05:17:04.431Z,0.82
2023-02-02T05:18:04.413Z,0.86
2023-02-02T05:19:04.371Z,0.89
2023-02-02T05:20:04.342Z,1.06
2023-02-02T05:21:04.349Z,1.02
2023-02-02T05:22:04.309Z,1.02
2023-02-02T05:23:04.307Z,1.09
2023-02-02T05:24:04.263Z,1.18
2023-02-02T05:25:04.252Z,1.22
2023-02-02T05:26:04.221Z,1.15
2023-02-02T05:27:04.201Z,1.11
2023-02-02T05:28:04.196Z,1.07
2023-02-02T05:29:04.138Z,1.00
2023-02-02T05:30:04.089Z,1.10
2023-02-02T05:31:04.142Z,1.03
2023-02-02T05:32:04.116Z,0.91
2023-02-02T05:33:04.070Z,0.82
2023-02-02T05:34:04.035Z,0.80
2023-02-02T05:35:04.028Z,0.85
2023-02-02T05:36:03.987Z,1.05
2023-02-02T05:37:03.945Z,0.99
2023-02-02T05:38:03.922Z,1.11
2023-02-02T05:39:03.889Z,1.14
2023-02-02T05:40:03.910Z,1.10
2023-02-02T05:41:03.856Z,1.05
2023-02-02T05:42:03.813Z,0.93
2023-02-02T05:43:03.782Z,0.95
2023-02-02T05:44:03.755Z,1.00
2023-02-02T05:45:03.788Z,1.05
2023-02-02T05:46:03.780Z,1.03
2023-02-02T05:47:03.694Z,0.98
2023-02-02T05:48:03.692Z,1.21
2023-02-02T05:49:03.620Z,1.19
2023-02-02T05:50:03.604Z,1.15
2023-02-02T05:51:03.601Z,1.26
2023-02-02T05:52:03.570Z,1.02
2023-02-02T05:53:03.525Z,1.00
2023-02-02T05:54:03.557Z,1.00
2023-02-02T05:55:03.469Z,1.11
2023-02-02T05:56:03.448Z,1.20
2023-02-02T05:57:03.426Z,1.29
2023-02-02T05:58:03.401Z,1.26
2023-02-02T05:59:03.400Z,1.27
2023-02-02T06:00:03.356Z,1.13
2023-02-02T06:01:03.352Z,1.14
2023-02-02T06:02:03.309Z,1.13
2023-02-02T06:03:03.345Z,1.02
2023-02-02T06:04:05.768Z,1.06
2023-02-02T06:05:03.306Z,1.12
2023-02-02T06:06:04.876Z,1.12
2023-02-02T06:07:03.298Z,1.03
2023-02-02T06:08:03.234Z,1.08
2023-02-02T06:09:03.252Z,1.12
2023-02-02T06:10:03.195Z,1.34
2023-02-02T06:11:03.179Z,1.35
2023-02-02T06:12:03.133Z,1.35
2023-02-02T06:13:03.105Z,1.37
2023-02-02T06:14:03.117Z,1.37
2023-02-02T06:15:03.049Z,1.30
2023-02-02T06:16:03.180Z,1.29
2023-02-02T06:17:02.997Z,1.19
2023-02-02T06:18:02.962Z,1.19
2023-02-02T06:19:04.140Z,1.28
2023-02-02T06:20:02.929Z,1.39
2023-02-02T06:21:02.896Z,1.41
2023-02-02T06:22:02.846Z,1.45
2023-02-02T06:35:03.008Z,1.20
2023-02-02T07:49:03.964Z,3.27
2023-02-02T08:11:59.977Z,4.10
2023-02-02T08:12:59.982Z,4.20
2023-02-02T08:14:02.572Z,4.12
2023-02-02T08:14:59.984Z,4.13
2023-02-02T08:15:59.965Z,4.14
2023-02-02T08:16:59.835Z,4.20
2023-02-02T08:17:59.920Z,4.35
2023-02-02T08:18:59.791Z,4.32
2023-02-02T08:19:59.818Z,4.93
2023-02-02T08:20:59.695Z,4.95
2023-02-02T08:21:59.942Z,5.01
2023-02-02T08:22:59.622Z,6.12
2023-02-02T08:24:00.798Z,7.32
2023-02-02T08:24:59.583Z,9.40
2023-02-02T08:25:59.498Z,9.95
2023-02-02T08:27:00.319Z,9.98
2023-02-02T08:27:59.431Z,10.11
2023-02-02T08:29:01.355Z,9.87
2023-02-02T08:29:59.471Z,9.77
2023-02-02T08:30:59.366Z,9.75
2023-02-02T08:31:59.339Z,9.51
2023-02-02T08:32:59.314Z,9.31
2023-02-02T08:33:59.235Z,9.28
2023-02-02T08:34:59.188Z,9.06
2023-02-02T08:35:59.442Z,9.01
2023-02-02T08:36:59.338Z,7.68
2023-02-02T08:37:59.089Z,7.12
2023-02-02T08:39:00.240Z,6.45
2023-02-02T08:39:59.074Z,6.11
2023-02-02T08:40:59.030Z,6.35
2023-02-02T08:41:59.085Z,6.36
2023-02-02T08:42:58.950Z,6.23
2023-02-02T08:43:58.983Z,6.38
2023-02-02T08:46:00.025Z,6.26
2023-02-02T08:46:12.894Z,6.29
2023-02-02T08:46:59.891Z,6.29
2023-02-02T08:48:10.915Z,6.39
2023-02-02T08:48:59.744Z,6.29
2023-02-02T08:49:58.743Z,6.30
2023-02-02T08:50:58.666Z,6.03
2023-02-02T08:52:00.578Z,5.47
2023-02-02T08:52:58.726Z,5.34
2023-02-02T08:53:58.570Z,5.11
2023-02-02T08:54:58.638Z,4.87
2023-02-02T08:55:58.520Z,4.68
2023-02-02T08:56:58.538Z,4.58
2023-02-02T08:57:58.465Z,4.54
2023-02-02T08:58:58.432Z,4.42
2023-02-02T08:59:58.403Z,4.28
2023-02-02T09:00:58.429Z,4.30
2023-02-02T09:01:58.487Z,4.13
2023-02-02T09:02:58.349Z,4.18
2023-02-02T09:03:58.289Z,4.11
2023-02-02T09:04:58.281Z,4.01
2023-02-02T09:05:58.442Z,3.92
2023-02-02T09:06:58.216Z,3.82
2023-02-02T09:07:58.183Z,3.79
2023-02-02T09:08:58.159Z,3.70
2023-02-02T09:09:58.136Z,3.73
2023-02-02T09:10:58.091Z,3.78
2023-02-02T09:11:58.077Z,3.58
2023-02-02T09:12:58.046Z,3.59
2023-02-02T09:13:57.995Z,3.47
2023-02-02T09:14:58.190Z,3.49
2023-02-02T09:15:57.935Z,3.49
2023-02-02T09:16:57.959Z,3.48
2023-02-02T09:17:57.876Z,3.27
2023-02-02T09:18:57.882Z,3.24
2023-02-02T09:19:57.753Z,3.24
2023-02-02T09:20:57.725Z,3.16
2023-02-02T09:21:57.725Z,3.03
2023-02-02T09:22:57.917Z,3.13
2023-02-02T09:23:57.705Z,2.98
2023-02-02T09:24:57.611Z,3.07
2023-02-02T09:25:57.603Z,3.06
2023-02-02T09:26:58.139Z,2.92
2023-02-02T09:27:57.526Z,2.99
2023-02-02T09:28:57.477Z,3.05
2023-02-02T09:29:57.453Z,3.03
2023-02-02T09:30:57.494Z,2.95
2023-02-02T09:31:57.458Z,2.95
2023-02-02T09:32:57.410Z,2.90
2023-02-02T09:33:57.358Z,2.81
2023-02-02T09:34:57.343Z,2.85
2023-02-02T09:35:58.094Z,2.74
2023-02-02T09:36:57.339Z,2.74
2023-02-02T09:37:57.249Z,2.68
2023-02-02T09:38:57.211Z,2.82
2023-02-02T09:39:57.230Z,2.83
2023-02-02T09:40:57.153Z,2.67
2023-02-02T09:41:57.180Z,2.68
2023-02-02T09:42:57.091Z,2.69
2023-02-02T09:43:57.082Z,2.70
2023-02-02T09:44:57.017Z,2.61
2023-02-02T09:45:57.049Z,2.57
2023-02-02T09:46:56.974Z,2.72
2023-02-02T09:47:56.971Z,2.67
2023-02-02T09:48:56.907Z,2.80
2023-02-02T09:49:57.061Z,2.77
2023-02-02T09:50:56.857Z,2.78
2023-02-02T09:51:56.942Z,2.69
2023-02-02T09:52:56.849Z,2.71
2023-02-02T09:53:56.838Z,2.68
2023-02-02T09:54:56.764Z,2.66
2023-02-02T09:55:56.724Z,2.71
2023-02-02T09:56:56.690Z,2.71
2023-02-02T09:57:56.686Z,2.71
2023-02-02T09:58:58.801Z,2.74
2023-02-02T09:59:57.596Z,2.72
2023-02-02T10:00:56.673Z,2.73
2023-02-02T10:01:56.633Z,2.76
2023-02-02T10:02:56.712Z,2.79
2023-02-02T10:03:56.525Z,2.50
2023-02-02T10:04:56.432Z,2.39
2023-02-02T10:05:56.434Z,2.45
2023-02-02T10:06:56.381Z,2.35
2023-02-02T10:07:56.372Z,2.35
2023-02-02T10:08:56.333Z,2.24
2023-02-02T10:09:56.294Z,2.24
2023-02-02T10:10:56.333Z,2.21
2023-02-02T10:11:56.257Z,2.27
2023-02-02T10:12:56.206Z,2.26
2023-02-02T10:13:56.171Z,2.24
2023-02-02T10:14:56.206Z,2.11
2023-02-02T10:15:56.433Z,2.13
2023-02-02T10:16:56.084Z,2.11
2023-02-02T10:17:56.150Z,2.08
2023-02-02T10:18:56.793Z,2.16
2023-02-02T10:19:56.030Z,2.10
2023-02-02T10:20:56.016Z,2.13
2023-02-02T10:21:55.953Z,2.13
2023-02-02T10:22:55.931Z,2.12
2023-02-02T10:23:56.624Z,2.15
2023-02-02T10:24:55.928Z,2.09
2023-02-02T10:25:55.887Z,2.07
2023-02-02T10:26:55.967Z,2.12
2023-02-02T10:27:55.797Z,1.94
2023-02-02T10:28:55.738Z,2.03
2023-02-02T10:29:55.741Z,2.18
2023-02-02T10:30:55.782Z,2.21
2023-02-02T10:31:56.777Z,2.28
2023-02-02T10:32:55.623Z,2.35
2023-02-02T10:33:55.623Z,2.41
2023-02-02T10:35:06.880Z,2.48
2023-02-02T10:35:56.555Z,2.48
2023-02-02T10:36:55.886Z,2.49
2023-02-02T10:37:56.117Z,2.25
2023-02-02T10:38:55.403Z,2.04
2023-02-02T10:39:55.438Z,2.10
2023-02-02T10:40:55.341Z,2.09
2023-02-02T10:41:55.442Z,1.02
2023-02-02T10:42:57.184Z,0.49
2023-02-02T10:43:55.346Z,0.44
2023-02-02T10:44:55.463Z,0.48
2023-02-02T10:45:55.238Z,0.44
2023-02-02T10:46:55.143Z,0.34
2023-02-02T10:47:55.182Z,0.39
2023-02-02T10:48:55.138Z,0.60
2023-02-02T10:49:56.308Z,0.97
2023-02-02T10:50:55.097Z,1.57
2023-02-02T10:51:55.072Z,2.25
2023-02-02T10:52:55.060Z,3.34
2023-02-02T10:53:55.028Z,4.46
2023-02-02T10:54:57.564Z,4.48
2023-02-02T10:55:54.955Z,4.58
2023-02-02T10:56:54.946Z,4.85
2023-02-02T10:57:55.160Z,5.24
2023-02-02T10:58:55.082Z,6.17
2023-02-02T10:59:54.901Z,5.82
2023-02-02T11:00:54.895Z,6.41
2023-02-02T11:01:54.896Z,6.68
2023-02-02T11:02:54.874Z,7.14
2023-02-02T11:03:54.864Z,7.38
2023-02-02T11:04:54.700Z,7.55
2023-02-02T11:05:54.669Z,8.39
2023-02-02T11:06:55.127Z,8.60
2023-02-02T11:07:54.627Z,8.86
2023-02-02T11:08:54.694Z,9.26
2023-02-02T11:09:54.550Z,9.05
2023-02-02T11:10:54.491Z,9.08
2023-02-02T11:11:54.443Z,9.24
2023-02-02T11:12:54.405Z,9.32
2023-02-02T11:13:54.434Z,9.47
2023-02-02T11:14:57.181Z,9.99
2023-02-02T11:15:55.162Z,10.42
2023-02-02T11:16:54.300Z,10.19
2023-02-02T11:17:54.275Z,10.24
2023-02-02T11:18:54.232Z,10.20
2023-02-02T11:19:54.173Z,10.09
2023-02-02T11:20:54.178Z,10.08
2023-02-02T11:21:54.203Z,10.10
2023-02-02T11:22:54.085Z,10.18
2023-02-02T11:23:54.113Z,10.42
2023-02-02T11:24:54.624Z,10.93
2023-02-02T11:25:53.975Z,11.09
2023-02-02T11:26:54.063Z,10.63
2023-02-02T11:27:55.701Z,10.37
2023-02-02T11:28:53.993Z,10.47
2023-02-02T11:29:54.658Z,10.19
2023-02-02T11:30:53.918Z,10.22
2023-02-02T11:31:53.874Z,9.92
2023-02-02T11:32:53.746Z,9.91
2023-02-02T11:33:54.474Z,9.91
2023-02-02T11:34:53.691Z,9.91
2023-02-02T11:35:53.663Z,10.00
2023-02-02T11:36:53.636Z,9.97
2023-02-02T11:37:53.572Z,9.76
2023-02-02T11:38:53.529Z,9.30
2023-02-02T11:39:54.161Z,9.55
2023-02-02T11:40:53.488Z,9.60
2023-02-02T11:41:53.442Z,9.76
2023-02-02T11:42:53.419Z,9.59
2023-02-02T11:43:53.361Z,9.72
2023-02-02T11:44:53.327Z,9.40
2023-02-02T11:45:53.338Z,9.76
2023-02-02T11:46:53.322Z,9.52
2023-02-02T11:47:53.199Z,8.70
2023-02-02T11:48:53.707Z,8.73
2023-02-02T11:49:53.138Z,8.81
2023-02-02T11:50:53.117Z,8.99
2023-02-02T11:51:53.058Z,9.28
2023-02-02T11:52:52.964Z,10.24
2023-02-02T11:53:52.964Z,9.78
2023-02-02T11:54:52.920Z,9.63
2023-02-02T11:55:52.846Z,9.27
2023-02-02T11:56:52.834Z,9.02
2023-02-02T11:57:52.779Z,8.35
2023-02-02T11:58:53.152Z,8.03
2023-02-02T11:59:53.660Z,8.54
2023-02-02T12:00:52.649Z,8.77
2023-02-02T12:01:52.577Z,9.07
2023-02-02T12:02:52.559Z,8.98
2023-02-02T12:03:53.193Z,9.01
2023-02-02T12:04:52.534Z,9.13
2023-02-02T12:05:52.443Z,7.83
2023-02-02T12:06:53.150Z,8.03
2023-02-02T12:07:52.348Z,7.51
2023-02-02T12:08:52.306Z,7.55
2023-02-02T12:09:52.244Z,8.45
2023-02-02T12:10:52.194Z,8.91
2023-02-02T12:11:52.160Z,8.81
2023-02-02T12:12:52.130Z,9.18
2023-02-02T12:13:52.080Z,8.80
2023-02-02T12:14:52.019Z,8.97
2023-02-02T12:15:52.024Z,8.91
2023-02-02T12:16:52.044Z,9.12
2023-02-02T12:17:51.887Z,8.96
2023-02-02T12:18:51.840Z,8.94
2023-02-02T12:19:53.637Z,8.97
2023-02-02T12:20:51.760Z,9.06
2023-02-02T12:21:51.754Z,8.78
2023-02-02T12:22:51.726Z,9.21
2023-02-02T12:23:51.662Z,9.71
2023-02-02T12:24:52.192Z,8.80
2023-02-02T12:25:51.580Z,8.69
2023-02-02T12:26:51.615Z,8.72
2023-02-02T12:27:51.487Z,9.50
2023-02-02T12:28:51.456Z,8.66
2023-02-02T12:29:51.829Z,9.26
2023-02-02T12:30:51.344Z,9.66
2023-02-02T12:31:51.418Z,9.83
2023-02-02T12:32:51.267Z,10.35
2023-02-02T12:33:51.221Z,10.27
2023-02-02T12:34:51.171Z,10.27
2023-02-02T12:35:51.133Z,9.52
2023-02-02T12:36:51.086Z,9.49
2023-02-02T12:37:51.052Z,9.62
2023-02-02T12:38:50.991Z,9.63
2023-02-02T12:39:50.994Z,9.30
2023-02-02T12:40:50.906Z,9.13
2023-02-02T12:41:50.905Z,9.20
2023-02-02T12:42:50.862Z,8.88
2023-02-02T12:43:50.862Z,8.59
2023-02-02T12:44:50.876Z,8.74
2023-02-02T12:45:50.770Z,8.31
2023-02-02T12:46:50.680Z,8.38
2023-02-02T12:47:50.632Z,8.35
2023-02-02T12:48:50.594Z,8.07
2023-02-02T12:49:50.562Z,7.72
2023-02-02T12:50:50.550Z,7.77
2023-02-02T12:51:50.513Z,7.59
2023-02-02T12:52:50.497Z,7.39
2023-02-02T12:54:34.188Z,6.91
2023-02-02T12:54:54.214Z,6.91
2023-02-02T12:55:50.339Z,6.92
2023-02-02T12:56:50.287Z,6.96
2023-02-02T12:57:50.249Z,6.95
2023-02-02T12:58:50.189Z,7.15
2023-02-02T12:59:50.185Z,7.04
2023-02-02T13:00:50.112Z,6.71
2023-02-02T13:01:50.134Z,6.42
2023-02-02T13:02:50.016Z,6.30
2023-02-02T13:03:49.971Z,6.30
2023-02-02T13:04:49.925Z,6.30
2023-02-02T13:05:49.927Z,6.30
2023-02-02T13:06:49.896Z,6.30
2023-02-02T13:07:49.831Z,5.96
2023-02-02T13:08:49.809Z,5.92
2023-02-02T13:09:49.758Z,5.83
2023-02-02T13:10:49.727Z,5.77
2023-02-02T13:11:49.664Z,5.96
2023-02-02T13:12:49.627Z,5.78
2023-02-02T13:13:49.574Z,5.81
2023-02-02T13:14:49.588Z,5.65
2023-02-02T13:15:49.536Z,5.63
2023-02-02T13:16:49.518Z,5.75
2023-02-02T13:17:49.450Z,5.99
2023-02-02T13:18:49.399Z,6.20
2023-02-02T13:19:49.365Z,6.51
2023-02-02T13:20:49.373Z,6.68
2023-02-02T13:21:49.274Z,6.63
2023-02-02T13:22:50.205Z,6.91
2023-02-02T13:23:49.226Z,6.74
2023-02-02T13:24:49.698Z,6.83
2023-02-02T13:25:49.140Z,7.04
2023-02-02T13:26:49.252Z,7.05
2023-02-02T13:27:49.048Z,6.84
2023-02-02T13:28:49.011Z,7.05
2023-02-02T13:29:49.032Z,7.04
2023-02-02T13:30:49.076Z,7.06
2023-02-02T13:31:48.936Z,7.08
2023-02-02T13:32:48.835Z,7.17
2023-02-02T13:33:48.781Z,7.15
2023-02-02T13:34:48.788Z,7.35
2023-02-02T13:35:48.758Z,7.35
2023-02-02T13:36:48.694Z,7.29
2023-02-02T13:37:48.662Z,7.33
2023-02-02T13:38:48.607Z,7.54
2023-02-02T13:39:48.582Z,7.44
2023-02-02T13:40:48.519Z,7.41
2023-02-02T13:41:48.519Z,7.51
2023-02-02T13:42:48.487Z,7.51
2023-02-02T13:43:48.453Z,7.66
2023-02-02T13:44:48.432Z,7.58
2023-02-02T13:45:48.417Z,7.63
2023-02-02T13:46:50.193Z,7.53
2023-02-02T13:47:48.265Z,7.62
2023-02-02T13:48:48.211Z,7.60
2023-02-02T13:49:48.167Z,7.58
2023-02-02T13:50:48.131Z,7.61
2023-02-02T13:51:48.082Z,7.52
2023-02-02T13:52:48.049Z,7.58
2023-02-02T13:53:48.035Z,7.48
2023-02-02T13:54:47.953Z,7.61
2023-02-02T13:55:47.904Z,7.55
2023-02-02T13:56:47.856Z,7.55
2023-02-02T13:57:47.900Z,7.60
2023-02-02T13:58:47.830Z,7.64
2023-02-02T13:59:47.721Z,7.62
2023-02-02T14:00:47.710Z,7.55
2023-02-02T14:01:47.653Z,7.56
2023-02-02T14:02:47.673Z,7.59
2023-02-02T14:03:47.545Z,7.57
2023-02-02T14:04:47.505Z,7.57
2023-02-02T14:05:47.448Z,7.56
2023-02-02T14:06:47.454Z,7.70
2023-02-02T14:07:47.364Z,7.67
2023-02-02T14:08:47.326Z,7.57
2023-02-02T14:09:47.265Z,7.63
2023-02-02T14:10:47.276Z,7.58
2023-02-02T14:11:47.236Z,7.50
2023-02-02T14:12:47.150Z,7.56
2023-02-02T14:13:51.725Z,7.50
2023-02-02T14:14:47.116Z,7.51
2023-02-02T14:15:47.075Z,7.52
2023-02-02T14:16:47.033Z,7.56
2023-02-02T14:17:46.968Z,7.65
2023-02-02T14:18:47.043Z,7.59
2023-02-02T14:19:46.877Z,7.61
2023-02-02T14:20:46.830Z,7.66
2023-02-02T14:21:46.788Z,7.59
2023-02-02T14:22:46.757Z,7.51
2023-02-02T14:23:46.704Z,7.62
2023-02-02T14:24:46.714Z,7.54
2023-02-02T14:25:46.621Z,7.46
2023-02-02T14:26:46.739Z,7.59
2023-02-02T14:27:46.521Z,7.45
2023-02-02T14:28:46.587Z,7.47
2023-02-02T14:29:47.144Z,7.46
2023-02-02T14:30:46.465Z,7.44
2023-02-02T14:31:46.404Z,7.51
2023-02-02T14:32:46.345Z,7.38
2023-02-02T14:33:46.296Z,7.34
2023-02-02T14:34:46.234Z,7.35
2023-02-02T14:35:46.207Z,7.23
2023-02-02T14:36:46.173Z,7.36
2023-02-02T14:37:46.116Z,7.38
2023-02-02T14:38:46.079Z,7.29
2023-02-02T14:39:46.029Z,7.30
2023-02-02T14:40:45.995Z,7.31
2023-02-02T14:41:45.942Z,7.31
2023-02-02T14:42:45.912Z,7.27
2023-02-02T14:43:45.924Z,7.29
2023-02-02T14:44:45.807Z,7.25
2023-02-02T14:45:45.854Z,7.22
2023-02-02T14:46:45.719Z,7.22
2023-02-02T14:47:45.693Z,7.20
2023-02-02T14:48:45.629Z,7.23
2023-02-02T14:49:45.584Z,7.23
2023-02-02T14:50:45.544Z,7.12
2023-02-02T14:51:45.533Z,7.11
2023-02-02T14:52:45.467Z,7.12
2023-02-02T14:53:45.406Z,7.08
2023-02-02T14:54:45.404Z,7.13
2023-02-02T14:55:46.227Z,7.03
2023-02-02T14:56:45.335Z,7.03
2023-02-02T14:57:45.290Z,7.13
2023-02-02T14:58:45.194Z,7.07
2023-02-02T14:59:45.188Z,7.11
2023-02-02T15:00:45.131Z,7.00
2023-02-02T15:01:45.119Z,7.13
2023-02-02T15:02:45.137Z,7.08
2023-02-02T15:03:44.992Z,6.95